createdAt,value
2023-02-19T00:01:42.724Z,53.06
2023-02-19T00:04:14.890Z,53.88
2023-02-19T00:06:43.578Z,53.38
2023-02-19T00:09:11.977Z,54.26
2023-02-19T00:11:39.862Z,52.98
2023-02-19T00:14:08.331Z,52.27
2023-02-19T00:16:39.956Z,52.17
2023-02-19T00:19:09.933Z,52.56
2023-02-19T00:21:37.662Z,52.04
2023-02-19T00:24:07.718Z,53.81
2023-02-19T00:26:35.706Z,52.39
2023-02-19T00:29:03.823Z,52.74
2023-02-19T00:31:33.687Z,54.15
2023-02-19T00:34:05.372Z,53.06
2023-02-19T00:36:35.866Z,50.90
2023-02-19T00:39:04.057Z,52.80
2023-02-19T00:41:32.047Z,53.42
2023-02-19T00:44:01.421Z,50.79
2023-02-19T00:46:31.370Z,51.47
2023-02-19T00:49:00.231Z,50.60
2023-02-19T00:51:31.078Z,51.14
2023-02-19T00:53:59.360Z,47.38
2023-02-19T00:56:28.046Z,49.52
2023-02-19T00:58:55.819Z,50.08
2023-02-19T01:01:24.036Z,51.63
2023-02-19T01:03:52.822Z,52.33
2023-02-19T01:06:21.550Z,47.39
2023-02-19T01:08:51.210Z,47.91
2023-02-19T01:11:20.316Z,51.45
2023-02-19T01:13:48.273Z,48.84
2023-02-19T01:16:18.060Z,50.07
2023-02-19T01:18:47.675Z,51.39
2023-02-19T01:21:18.024Z,51.39
2023-02-19T01:23:47.798Z,50.60
2023-02-19T01:26:18.496Z,50.36
2023-02-19T01:28:48.350Z,53.38
2023-02-19T01:31:19.413Z,50.87
2023-02-19T01:33:48.162Z,50.86
2023-02-19T01:36:16.318Z,48.65
2023-02-19T01:38:44.802Z,47.38
2023-02-19T01:41:14.804Z,48.80
2023-02-19T01:44:00.685Z,46.75
2023-02-19T01:46:29.410Z,47.26
2023-02-19T01:49:00.182Z,45.86
2023-02-19T01:51:28.809Z,46.47
2023-02-19T01:54:03.458Z,50.04
2023-02-19T01:56:32.899Z,50.90
2023-02-19T01:59:02.809Z,50.33
2023-02-19T02:01:30.590Z,51.59
2023-02-19T02:03:58.994Z,48.54
2023-02-19T02:06:30.612Z,50.88
2023-02-19T02:09:16.912Z,53.71
2023-02-19T02:11:51.642Z,52.75
2023-02-19T02:14:25.137Z,50.87
2023-02-19T02:17:01.105Z,50.58
2023-02-19T02:19:43.873Z,50.54
2023-02-19T02:22:18.820Z,51.24
2023-02-19T02:25:18.333Z,50.56
2023-02-19T02:27:57.317Z,48.80
2023-02-19T02:30:36.695Z,47.58
2023-02-19T02:33:13.408Z,49.22
2023-02-19T02:35:47.445Z,49.74
2023-02-19T02:38:18.294Z,48.96
2023-02-19T02:40:46.236Z,48.00
2023-02-19T02:43:15.502Z,49.71
2023-02-19T02:45:44.691Z,51.24
2023-02-19T02:48:36.777Z,46.20
2023-02-19T02:51:11.396Z,45.56
2023-02-19T02:54:06.598Z,48.03
2023-02-19T02:56:35.742Z,45.86
2023-02-19T02:59:07.922Z,46.52
2023-02-19T03:01:59.789Z,47.10
2023-02-19T03:04:34.308Z,47.01
2023-02-19T03:07:08.026Z,47.54
2023-02-19T03:09:41.222Z,45.99
2023-02-19T03:12:33.491Z,50.22
2023-02-19T03:15:24.994Z,50.50
2023-02-19T03:18:17.915Z,49.27
2023-02-19T03:20:49.329Z,51.21
2023-02-19T03:23:19.334Z,50.72
2023-02-19T03:26:05.867Z,53.13
2023-02-19T03:29:03.959Z,51.40
2023-02-19T03:31:34.135Z,52.67
2023-02-19T03:34:09.602Z,52.78
2023-02-19T03:36:43.687Z,51.77
2023-02-19T03:39:16.574Z,52.27
2023-02-19T03:41:54.839Z,51.96
2023-02-19T03:44:30.192Z,51.69
2023-02-19T03:47:03.729Z,50.95
2023-02-19T03:49:47.212Z,51.13
2023-02-19T03:52:20.240Z,52.24
2023-02-19T03:54:54.005Z,51.87
2023-02-19T03:57:26.246Z,52.77
2023-02-19T04:00:00.614Z,53.06
2023-02-19T04:02:33.878Z,47.73
2023-02-19T04:05:11.634Z,47.85
2023-02-19T04:07:46.215Z,46.08
2023-02-19T04:10:16.980Z,47.62
2023-02-19T04:12:52.563Z,45.68
2023-02-19T04:15:25.428Z,44.94
2023-02-19T04:17:57.343Z,48.12
2023-02-19T04:20:30.747Z,48.27
2023-02-19T04:22:59.175Z,45.62
2023-02-19T04:25:28.690Z,48.80
2023-02-19T04:27:56.570Z,48.30
2023-02-19T04:30:24.712Z,50.57
2023-02-19T04:32:52.497Z,50.43
2023-02-19T04:35:20.256Z,51.43
2023-02-19T04:37:49.425Z,50.15
2023-02-19T04:40:17.402Z,50.04
2023-02-19T04:42:45.125Z,49.60
2023-02-19T04:45:12.888Z,51.75
2023-02-19T04:47:40.634Z,51.44
2023-02-19T04:50:08.868Z,51.19
2023-02-19T04:52:36.693Z,50.20
2023-02-19T04:55:06.670Z,49.38
2023-02-19T04:57:34.474Z,49.44
2023-02-19T05:00:02.499Z,48.89
2023-02-19T05:02:30.230Z,46.30
2023-02-19T05:04:57.984Z,46.37
2023-02-19T05:07:25.780Z,45.79
2023-02-19T05:09:53.608Z,45.26
2023-02-19T05:12:22.703Z,49.21
2023-02-19T05:14:50.863Z,49.79
2023-02-19T05:17:18.605Z,48.42
2023-02-19T05:19:46.413Z,47.51
2023-02-19T05:22:14.304Z,47.79
2023-02-19T05:24:42.074Z,48.59
2023-02-19T05:27:09.875Z,49.93
2023-02-19T05:29:39.016Z,51.05
2023-02-19T05:32:06.798Z,47.81
2023-02-19T05:34:34.648Z,49.04
2023-02-19T05:37:02.410Z,48.40
2023-02-19T05:39:30.190Z,49.89
2023-02-19T05:41:57.952Z,49.76
2023-02-19T05:44:25.947Z,48.49
2023-02-19T05:46:55.201Z,48.73
2023-02-19T05:49:22.959Z,50.00
2023-02-19T05:51:51.877Z,49.16
2023-02-19T05:54:19.635Z,50.54
2023-02-19T05:56:47.399Z,48.20
2023-02-19T05:59:18.663Z,49.01
2023-02-19T06:01:46.553Z,51.30
2023-02-19T06:04:17.206Z,50.38
2023-02-19T06:06:44.979Z,50.33
2023-02-19T06:09:12.970Z,48.53
2023-02-19T06:11:40.780Z,50.19
2023-02-19T06:14:08.525Z,49.53
2023-02-19T06:16:36.246Z,49.24
2023-02-19T06:19:04.900Z,49.37
2023-02-19T06:21:34.039Z,49.42
2023-02-19T06:24:06.333Z,48.15
2023-02-19T06:26:34.378Z,48.89
2023-02-19T06:29:02.126Z,46.98
2023-02-19T06:31:30.022Z,49.49
2023-02-19T06:33:57.868Z,49.43
2023-02-19T06:36:26.079Z,50.06
2023-02-19T06:38:55.168Z,50.45
2023-02-19T06:41:22.958Z,50.37
2023-02-19T06:43:50.702Z,50.29
2023-02-19T06:46:18.796Z,48.37
2023-02-19T06:48:46.871Z,51.22
2023-02-19T06:51:18.518Z,50.24
2023-02-19T06:53:46.681Z,48.80
2023-02-19T06:56:27.361Z,47.92
2023-02-19T06:58:56.664Z,46.39
2023-02-19T07:01:24.716Z,48.63
2023-02-19T07:03:52.674Z,47.92
2023-02-19T07:06:20.804Z,46.55
2023-02-19T07:08:48.783Z,45.85
2023-02-19T07:11:16.977Z,46.32
2023-02-19T07:13:46.504Z,47.61
2023-02-19T07:16:15.241Z,50.55
2023-02-19T07:18:43.051Z,50.43
2023-02-19T07:21:13.977Z,50.98
2023-02-19T07:23:42.712Z,50.43
2023-02-19T07:26:11.485Z,46.36
2023-02-19T07:28:40.866Z,47.85
2023-02-19T07:31:10.873Z,49.12
2023-02-19T07:33:38.855Z,45.99
2023-02-19T07:36:08.703Z,47.26
2023-02-19T07:38:36.742Z,48.59
2023-02-19T07:41:06.258Z,48.71
2023-02-19T07:43:36.208Z,49.88
2023-02-19T07:46:04.589Z,48.74
2023-02-19T07:48:34.974Z,48.82
2023-02-19T07:51:03.727Z,49.27
2023-02-19T07:53:31.890Z,49.24
2023-02-19T07:56:01.912Z,47.60
2023-02-19T07:58:29.874Z,48.77
2023-02-19T08:00:58.105Z,48.35
2023-02-19T08:03:24.955Z,48.17
2023-02-19T08:05:55.011Z,49.39
2023-02-19T08:08:22.830Z,49.24
2023-02-19T08:11:07.904Z,48.05
2023-02-19T08:13:35.685Z,47.56
2023-02-19T08:16:19.962Z,47.91
2023-02-19T08:18:50.077Z,47.41
2023-02-19T08:21:20.476Z,48.70
2023-02-19T08:23:50.868Z,48.37
2023-02-19T08:26:19.127Z,47.34
2023-02-19T08:28:46.964Z,48.66
2023-02-19T08:31:15.112Z,47.52
2023-02-19T08:33:43.060Z,51.19
2023-02-19T08:36:12.321Z,49.14
2023-02-19T08:38:41.445Z,48.13
2023-02-19T08:41:12.164Z,48.17
2023-02-19T08:43:40.764Z,45.80
2023-02-19T08:46:10.346Z,46.53
2023-02-19T08:48:38.999Z,46.58
2023-02-19T08:51:10.024Z,45.35
2023-02-19T08:53:39.880Z,46.33
2023-02-19T08:56:10.510Z,48.06
2023-02-19T08:58:38.500Z,48.86
2023-02-19T09:01:10.755Z,47.95
2023-02-19T09:03:38.703Z,47.97
2023-02-19T09:06:06.860Z,48.29
2023-02-19T09:08:34.690Z,47.83
2023-02-19T09:11:04.419Z,48.12
2023-02-19T09:13:33.816Z,48.56
2023-02-19T09:16:03.261Z,47.55
2023-02-19T09:18:31.163Z,47.67
2023-02-19T09:21:01.533Z,48.59
2023-02-19T09:23:29.457Z,47.92
2023-02-19T09:26:00.904Z,48.77
2023-02-19T09:28:29.207Z,48.25
2023-02-19T09:30:58.513Z,48.42
2023-02-19T09:33:26.353Z,49.13
2023-02-19T09:35:54.138Z,47.17
2023-02-19T09:38:21.917Z,47.08
2023-02-19T09:40:49.699Z,46.69
2023-02-19T09:43:21.865Z,47.76
2023-02-19T09:45:54.170Z,47.85
2023-02-19T09:48:23.297Z,48.14
2023-02-19T09:50:51.422Z,45.88
2023-02-19T09:53:23.948Z,47.30
2023-02-19T09:55:53.792Z,46.71
2023-02-19T09:58:29.926Z,48.70
2023-02-19T10:01:01.068Z,47.24
2023-02-19T10:03:34.458Z,46.93
2023-02-19T10:06:05.901Z,47.10
2023-02-19T10:08:37.770Z,46.86
2023-02-19T10:11:07.320Z,47.68
2023-02-19T10:13:38.372Z,46.97
2023-02-19T10:16:11.511Z,46.36
2023-02-19T10:18:43.737Z,46.76
2023-02-19T10:21:17.092Z,45.92
2023-02-19T10:23:45.695Z,45.69
2023-02-19T10:26:13.563Z,45.78
2023-02-19T10:28:41.430Z,45.18
2023-02-19T10:31:20.190Z,46.46
2023-02-19T10:33:54.814Z,45.93
2023-02-19T10:36:31.365Z,46.08
2023-02-19T10:39:01.614Z,47.39
2023-02-19T10:41:30.028Z,45.98
2023-02-19T10:44:12.459Z,45.56
2023-02-19T10:46:45.472Z,45.09
2023-02-19T10:49:25.300Z,44.99
2023-02-19T10:51:54.855Z,45.89
2023-02-19T10:54:28.500Z,43.92
2023-02-19T10:56:56.514Z,45.08
2023-02-19T10:59:26.754Z,46.00
2023-02-19T11:01:56.178Z,45.70
2023-02-19T11:04:26.988Z,44.29
2023-02-19T11:06:55.469Z,44.98
2023-02-19T11:09:35.739Z,44.21
2023-02-19T11:12:05.005Z,45.17
2023-02-19T11:14:34.665Z,45.36
2023-02-19T11:17:05.572Z,44.82
2023-02-19T11:19:38.615Z,44.72
2023-02-19T11:22:21.457Z,43.94
2023-02-19T11:24:51.793Z,43.23
2023-02-19T11:27:23.310Z,42.91
2023-02-19T11:29:51.449Z,42.41
2023-02-19T11:32:29.346Z,42.72
2023-02-19T11:35:18.995Z,43.92
2023-02-19T11:37:56.659Z,44.49
2023-02-19T11:40:36.122Z,44.98
2023-02-19T11:43:23.027Z,44.00
2023-02-19T11:46:00.434Z,42.48
2023-02-19T11:48:48.450Z,43.31
2023-02-19T11:51:31.152Z,43.92
2023-02-19T11:54:11.971Z,44.37
2023-02-19T11:56:44.554Z,42.79
2023-02-19T11:59:21.367Z,42.75
2023-02-19T12:02:25.853Z,43.23
2023-02-19T12:05:13.197Z,43.35
2023-02-19T12:08:04.230Z,42.92
2023-02-19T12:10:44.100Z,43.41
2023-02-19T12:13:20.238Z,43.56
2023-02-19T12:16:11.508Z,44.21
2023-02-19T12:18:55.696Z,43.51
2023-02-19T12:21:43.730Z,43.19
2023-02-19T12:24:41.000Z,43.39
2023-02-19T12:27:22.797Z,42.33
2023-02-19T12:30:04.095Z,44.26
2023-02-19T12:32:50.161Z,43.49
2023-02-19T12:35:47.793Z,42.64
2023-02-19T12:38:24.300Z,43.54
2023-02-19T12:41:13.110Z,43.18
2023-02-19T12:43:45.445Z,43.18
2023-02-19T12:46:20.028Z,44.76
2023-02-19T12:48:56.243Z,43.49
2023-02-19T12:51:28.841Z,43.29
2023-02-19T12:54:01.195Z,43.03
2023-02-19T12:56:35.488Z,43.20
2023-02-19T12:59:08.242Z,42.84
2023-02-19T13:01:44.879Z,43.74
2023-02-19T13:04:23.780Z,42.90
2023-02-19T13:06:55.959Z,42.07
2023-02-19T13:09:29.243Z,42.94
2023-02-19T13:12:03.785Z,42.93
2023-02-19T13:14:35.547Z,43.78
2023-02-19T13:17:10.317Z,43.10
2023-02-19T13:19:39.395Z,44.38
2023-02-19T13:22:37.747Z,43.79
2023-02-19T13:25:08.643Z,45.07
2023-02-19T13:28:02.852Z,44.90
2023-02-19T13:31:03.334Z,43.61
2023-02-19T13:33:44.925Z,42.66
2023-02-19T13:36:15.699Z,43.85
2023-02-19T13:38:45.898Z,43.53
2023-02-19T13:41:29.057Z,42.90
2023-02-19T13:44:04.354Z,44.14
2023-02-19T13:46:41.319Z,43.75
2023-02-19T13:49:46.268Z,42.58
2023-02-19T13:52:40.322Z,41.92
2023-02-19T13:55:46.639Z,43.69
2023-02-19T13:58:52.770Z,43.28
2023-02-19T14:02:13.196Z,43.88
2023-02-19T14:04:50.261Z,43.34
2023-02-19T14:07:51.299Z,43.72
2023-02-19T14:11:05.054Z,42.86
2023-02-19T14:13:58.027Z,42.97
2023-02-19T14:16:51.256Z,43.32
2023-02-19T14:19:47.948Z,44.91
2023-02-19T14:22:55.353Z,42.72
2023-02-19T14:25:45.634Z,43.46
2023-02-19T14:28:44.687Z,43.94
2023-02-19T14:31:20.408Z,44.23
2023-02-19T14:33:51.626Z,43.36
2023-02-19T14:36:29.847Z,43.07
2023-02-19T14:39:00.138Z,43.96
2023-02-19T14:41:31.528Z,42.21
2023-02-19T14:44:01.900Z,43.60
2023-02-19T14:46:32.777Z,43.16
2023-02-19T14:49:06.570Z,43.48
2023-02-19T14:51:38.203Z,43.08
2023-02-19T14:54:16.149Z,43.05
2023-02-19T14:56:47.336Z,43.75
2023-02-19T14:59:25.339Z,44.25
2023-02-19T15:02:01.619Z,44.29
2023-02-19T15:04:35.862Z,43.96
2023-02-19T15:07:08.454Z,43.32
2023-02-19T15:09:40.462Z,43.83
2023-02-19T15:12:08.985Z,42.38
2023-02-19T15:14:36.955Z,42.90
2023-02-19T15:17:07.300Z,42.76
2023-02-19T15:19:39.628Z,44.08
2023-02-19T15:22:07.505Z,44.14
2023-02-19T15:24:35.348Z,43.94
2023-02-19T15:27:04.259Z,43.18
2023-02-19T15:29:32.033Z,44.35
2023-02-19T15:32:02.257Z,44.97
2023-02-19T15:34:32.006Z,44.73
2023-02-19T15:37:03.561Z,43.79
2023-02-19T15:39:36.030Z,43.81
2023-02-19T15:42:06.918Z,43.60
2023-02-19T15:44:45.075Z,44.12
2023-02-19T15:47:20.344Z,43.88
2023-02-19T15:49:54.209Z,45.02
2023-02-19T15:52:31.096Z,44.55
2023-02-19T15:55:05.793Z,44.07
2023-02-19T15:57:37.943Z,44.94
2023-02-19T16:00:11.990Z,44.33
2023-02-19T16:02:42.802Z,44.80
2023-02-19T16:05:15.866Z,44.63
2023-02-19T16:07:45.097Z,45.88
2023-02-19T16:10:22.542Z,44.37
2023-02-19T16:12:57.968Z,44.69
2023-02-19T16:15:26.456Z,44.42
2023-02-19T16:17:54.463Z,45.12
2023-02-19T16:20:26.074Z,45.83
2023-02-19T16:23:00.001Z,45.70
2023-02-19T16:25:32.597Z,45.73
2023-02-19T16:28:00.692Z,45.17
2023-02-19T16:30:31.927Z,45.15
2023-02-19T16:33:22.717Z,45.40
2023-02-19T16:35:52.342Z,46.56
2023-02-19T16:38:22.372Z,43.87
2023-02-19T16:41:07.169Z,44.73
2023-02-19T16:43:42.697Z,45.35
2023-02-19T16:46:12.753Z,44.56
2023-02-19T16:48:40.692Z,45.86
2023-02-19T16:51:09.786Z,44.81
2023-02-19T16:53:39.819Z,43.52
2023-02-19T16:56:14.536Z,44.17
2023-02-19T16:58:42.328Z,45.64
2023-02-19T17:01:10.561Z,45.58
2023-02-19T17:03:39.948Z,47.06
2023-02-19T17:06:08.008Z,46.31
2023-02-19T17:08:39.582Z,45.41
2023-02-19T17:11:11.758Z,47.48
2023-02-19T17:13:39.802Z,46.42
2023-02-19T17:16:07.657Z,46.10
2023-02-19T17:18:35.510Z,46.43
2023-02-19T17:21:13.135Z,46.54
2023-02-19T17:23:42.466Z,46.49
2023-02-19T17:26:12.744Z,45.81
2023-02-19T17:28:41.458Z,46.19
2023-02-19T17:31:10.141Z,47.16
2023-02-19T17:33:38.132Z,46.63
2023-02-19T17:36:06.956Z,45.76
2023-02-19T17:38:34.830Z,45.22
2023-02-19T17:41:03.928Z,45.94
2023-02-19T17:43:31.677Z,45.37
2023-02-19T17:45:59.480Z,44.56
2023-02-19T17:48:27.451Z,44.32
2023-02-19T17:50:55.251Z,45.28
2023-02-19T17:53:23.047Z,45.43
2023-02-19T17:55:50.819Z,45.12
2023-02-19T17:58:19.909Z,44.56
2023-02-19T18:00:47.681Z,44.70
2023-02-19T18:03:15.453Z,45.64
2023-02-19T18:05:43.211Z,44.75
2023-02-19T18:08:11.038Z,44.92
2023-02-19T18:10:38.795Z,45.52
2023-02-19T18:13:06.614Z,45.83
2023-02-19T18:15:35.876Z,44.28
2023-02-19T18:18:04.983Z,44.11
2023-02-19T18:20:32.841Z,45.38
2023-02-19T18:23:00.618Z,45.36
2023-02-19T18:25:28.365Z,45.08
2023-02-19T18:27:56.587Z,45.46
2023-02-19T18:30:24.519Z,45.19
2023-02-19T18:32:53.685Z,44.58
2023-02-19T18:35:22.367Z,43.92
2023-02-19T18:37:54.145Z,43.51
2023-02-19T18:40:22.575Z,44.28
2023-02-19T18:42:50.535Z,46.33
2023-02-19T18:45:18.804Z,46.86
2023-02-19T18:47:47.607Z,47.26
2023-02-19T18:50:17.706Z,45.54
2023-02-19T18:52:45.958Z,46.83
2023-02-19T18:55:13.730Z,46.48
2023-02-19T18:57:41.566Z,49.11
2023-02-19T19:00:10.489Z,48.26
2023-02-19T19:02:48.641Z,47.96
2023-02-19T19:05:21.254Z,48.32
2023-02-19T19:07:49.173Z,48.24
2023-02-19T19:10:17.022Z,46.95
2023-02-19T19:12:44.763Z,47.63
2023-02-19T19:15:12.565Z,48.46
2023-02-19T19:17:41.052Z,46.82
2023-02-19T19:20:10.199Z,48.67
2023-02-19T19:22:39.722Z,47.77
2023-02-19T19:25:08.688Z,48.34
2023-02-19T19:27:36.644Z,47.21
2023-02-19T19:30:05.312Z,46.72
2023-02-19T19:32:33.130Z,46.48
2023-02-19T19:35:00.913Z,45.93
2023-02-19T19:37:29.193Z,46.49
2023-02-19T19:39:58.348Z,47.00
2023-02-19T19:42:26.372Z,47.08
2023-02-19T19:44:55.682Z,45.14
2023-02-19T19:47:23.596Z,45.99
2023-02-19T19:49:51.416Z,46.85
2023-02-19T19:52:19.268Z,46.30
2023-02-19T19:54:47.050Z,45.24
2023-02-19T19:57:17.197Z,46.58
2023-02-19T19:59:45.009Z,45.84
2023-02-19T20:02:13.067Z,45.17
2023-02-19T20:04:40.842Z,44.85
2023-02-19T20:07:08.618Z,46.34
2023-02-19T20:09:36.506Z,45.72
2023-02-19T20:12:04.558Z,44.34
2023-02-19T20:14:33.732Z,44.27
2023-02-19T20:17:02.059Z,46.70
2023-02-19T20:19:29.848Z,45.15
2023-02-19T20:21:57.583Z,44.94
2023-02-19T20:24:28.818Z,45.35
2023-02-19T20:26:59.166Z,43.45
2023-02-19T20:29:27.787Z,44.95
2023-02-19T20:31:59.580Z,44.14
2023-02-19T20:34:27.911Z,44.81
2023-02-19T20:36:56.355Z,44.73
2023-02-19T20:39:28.694Z,44.95
2023-02-19T20:41:57.507Z,45.80
2023-02-19T20:44:25.992Z,44.88
2023-02-19T20:46:54.636Z,44.77
2023-02-19T20:49:28.694Z,44.94
2023-02-19T20:51:58.787Z,45.61
2023-02-19T20:54:28.554Z,46.04
2023-02-19T20:56:57.551Z,45.31
2023-02-19T20:59:30.918Z,45.29
2023-02-19T21:01:59.264Z,45.65
2023-02-19T21:04:28.565Z,44.21
2023-02-19T21:06:56.366Z,43.02
2023-02-19T21:09:24.978Z,43.16
2023-02-19T21:11:53.063Z,44.20
2023-02-19T21:14:21.304Z,42.28
2023-02-19T21:16:49.217Z,44.90
2023-02-19T21:19:17.025Z,43.40
2023-02-19T21:21:46.179Z,45.00
2023-02-19T21:24:15.300Z,45.02
2023-02-19T21:26:44.369Z,46.39
2023-02-19T21:29:16.575Z,44.88
2023-02-19T21:31:46.104Z,45.41
2023-02-19T21:34:16.635Z,45.37
2023-02-19T21:36:46.184Z,44.67
2023-02-19T21:39:15.596Z,45.29
2023-02-19T21:41:43.528Z,44.61
2023-02-19T21:44:11.495Z,44.76
2023-02-19T21:46:39.337Z,46.50
2023-02-19T21:49:07.190Z,44.31
2023-02-19T21:51:37.068Z,43.87
2023-02-19T21:54:07.390Z,43.46
2023-02-19T21:56:36.902Z,42.74
2023-02-19T21:59:05.100Z,45.32
2023-02-19T22:01:35.062Z,43.42
2023-02-19T22:04:02.876Z,43.38
2023-02-19T22:06:31.823Z,42.96
2023-02-19T22:09:00.378Z,43.06
2023-02-19T22:11:29.615Z,42.47
2023-02-19T22:13:57.407Z,42.28
2023-02-19T22:16:25.191Z,42.48
2023-02-19T22:18:54.907Z,42.71
2023-02-19T22:21:24.499Z,42.19
2023-02-19T22:23:53.814Z,42.32
2023-02-19T22:26:24.139Z,42.39
2023-02-19T22:28:53.658Z,43.11
2023-02-19T22:31:23.130Z,44.06
2023-02-19T22:33:51.625Z,43.85
2023-02-19T22:36:22.003Z,44.36
2023-02-19T22:38:50.776Z,44.66
2023-02-19T22:41:19.306Z,43.03
2023-02-19T22:43:47.311Z,43.88
2023-02-19T22:46:19.318Z,44.78
2023-02-19T22:48:47.226Z,43.83
2023-02-19T22:51:17.308Z,43.64
2023-02-19T22:53:45.823Z,43.93
2023-02-19T22:56:15.393Z,43.81
2023-02-19T22:58:43.923Z,43.98
2023-02-19T23:01:13.069Z,43.20
2023-02-19T23:03:48.905Z,43.59
2023-02-19T23:06:17.438Z,44.41
2023-02-19T23:08:45.456Z,43.00
2023-02-19T23:11:14.315Z,44.25
2023-02-19T23:13:43.130Z,45.92
2023-02-19T23:16:11.746Z,44.19
2023-02-19T23:18:39.760Z,44.39
2023-02-19T23:21:09.318Z,44.95
2023-02-19T23:23:37.087Z,45.19
2023-02-19T23:26:05.405Z,43.92
2023-02-19T23:28:33.164Z,44.77
2023-02-19T23:31:01.192Z,44.84
2023-02-19T23:33:29.044Z,44.95
2023-02-19T23:35:56.814Z,43.56
2023-02-19T23:38:25.952Z,43.02
2023-02-19T23:40:53.825Z,42.67
2023-02-19T23:43:22.078Z,43.20
2023-02-19T23:45:51.235Z,44.00
2023-02-19T23:48:19.130Z,44.31
2023-02-19T23:50:47.095Z,45.42
2023-02-19T23:53:14.887Z,44.12
2023-02-19T23:55:44.026Z,45.53
2023-02-19T23:58:11.839Z,44.81
